sensor_id;sensor_type;location;lat;lon;timestamp;P1;durP1;ratioP1;P2;durP2;ratioP2
7527;SDS011;3805;49.006;8.514;2023-02-02T00:00:01;12.10;;;5.90;;
7527;SDS011;3805;49.006;8.514;2023-02-02T00:02:50;12.70;;;4.70;;
7527;SDS011;3805;49.006;8.514;2023-02-02T00:05:43;14.43;;;5.60;;
7527;SDS011;3805;49.006;8.514;2023-02-02T00:08:32;16.07;;;5.63;;
7527;SDS011;3805;49.006;8.514;2023-02-02T00:11:22;19.87;;;5.97;;
7527;SDS011;3805;49.006;8.514;2023-02-02T00:14:11;14.67;;;5.10;;
7527;SDS011;3805;49.006;8.514;2023-02-02T00:17:01;15.13;;;5.37;;
7527;SDS011;3805;49.006;8.514;2023-02-02T00:19:50;10.23;;;4.90;;
7527;SDS011;3805;49.006;8.514;2023-02-02T00:22:39;10.77;;;5.37;;
7527;SDS011;3805;49.006;8.514;2023-02-02T00:25:27;12.73;;;5.17;;
7527;SDS011;3805;49.006;8.514;2023-02-02T00:28:16;10.83;;;4.93;;
7527;SDS011;3805;49.006;8.514;2023-02-02T00:31:04;10.03;;;4.80;;
7527;SDS011;3805;49.006;8.514;2023-02-02T00:33:54;13.23;;;4.90;;
7527;SDS011;3805;49.006;8.514;2023-02-02T00:36:43;9.63;;;4.80;;
7527;SDS011;3805;49.006;8.514;2023-02-02T00:39:32;6.73;;;4.50;;
7527;SDS011;3805;49.006;8.514;2023-02-02T00:42:20;12.70;;;5.53;;
7527;SDS011;3805;49.006;8.514;2023-02-02T00:45:12;10.33;;;5.10;;
7527;SDS011;3805;49.006;8.514;2023-02-02T00:48:03;11.20;;;4.60;;
7527;SDS011;3805;49.006;8.514;2023-02-02T00:50:54;18.57;;;5.20;;
7527;SDS011;3805;49.006;8.514;2023-02-02T00:53:43;11.77;;;5.30;;
7527;SDS011;3805;49.006;8.514;2023-02-02T00:56:31;12.23;;;5.50;;
7527;SDS011;3805;49.006;8.514;2023-02-02T00:59:20;10.40;;;5.40;;
7527;SDS011;3805;49.006;8.514;2023-02-02T01:02:08;11.07;;;5.00;;
7527;SDS011;3805;49.006;8.514;2023-02-02T01:04:57;10.77;;;5.50;;
7527;SDS011;3805;49.006;8.514;2023-02-02T01:07:47;11.40;;;5.40;;
7527;SDS011;3805;49.006;8.514;2023-02-02T01:10:36;15.50;;;4.60;;
7527;SDS011;3805;49.006;8.514;2023-02-02T01:13:24;16.03;;;4.80;;
7527;SDS011;3805;49.006;8.514;2023-02-02T01:16:13;6.87;;;6.13;;
7527;SDS011;3805;49.006;8.514;2023-02-02T01:19:02;10.50;;;5.70;;
7527;SDS011;3805;49.006;8.514;2023-02-02T01:21:50;9.90;;;4.53;;
7527;SDS011;3805;49.006;8.514;2023-02-02T01:24:40;13.77;;;5.40;;
7527;SDS011;3805;49.006;8.514;2023-02-02T01:27:29;12.83;;;4.83;;
7527;SDS011;3805;49.006;8.514;2023-02-02T01:30:17;10.93;;;5.40;;
7527;SDS011;3805;49.006;8.514;2023-02-02T01:33:06;13.10;;;5.27;;
7527;SDS011;3805;49.006;8.514;2023-02-02T01:35:54;14.53;;;4.77;;
7527;SDS011;3805;49.006;8.514;2023-02-02T01:38:43;10.83;;;5.03;;
7527;SDS011;3805;49.006;8.514;2023-02-02T01:41:33;10.63;;;4.40;;
7527;SDS011;3805;49.006;8.514;2023-02-02T01:47:49;16.13;;;4.90;;
7527;SDS011;3805;49.006;8.514;2023-02-02T01:50:40;6.47;;;4.20;;
7527;SDS011;3805;49.006;8.514;2023-02-02T01:53:28;6.40;;;4.30;;
7527;SDS011;3805;49.006;8.514;2023-02-02T01:56:20;7.17;;;5.07;;
7527;SDS011;3805;49.006;8.514;2023-02-02T01:59:14;4.30;;;3.90;;
7527;SDS011;3805;49.006;8.514;2023-02-02T02:02:03;6.23;;;4.40;;
7527;SDS011;3805;49.006;8.514;2023-02-02T02:04:52;13.90;;;6.53;;
7527;SDS011;3805;49.006;8.514;2023-02-02T02:07:41;7.90;;;4.83;;
7527;SDS011;3805;49.006;8.514;2023-02-02T02:10:30;10.83;;;4.97;;
7527;SDS011;3805;49.006;8.514;2023-02-02T02:13:19;9.73;;;4.20;;
7527;SDS011;3805;49.006;8.514;2023-02-02T02:16:35;10.00;;;4.60;;
7527;SDS011;3805;49.006;8.514;2023-02-02T02:23:20;6.43;;;4.20;;
7527;SDS011;3805;49.006;8.514;2023-02-02T02:26:45;8.40;;;3.77;;
7527;SDS011;3805;49.006;8.514;2023-02-02T02:33:11;9.67;;;4.60;;
7527;SDS011;3805;49.006;8.514;2023-02-02T02:36:03;11.77;;;5.03;;
7527;SDS011;3805;49.006;8.514;2023-02-02T02:38:57;13.70;;;5.27;;
7527;SDS011;3805;49.006;8.514;2023-02-02T02:41:51;9.60;;;4.30;;
7527;SDS011;3805;49.006;8.514;2023-02-02T02:44:42;9.17;;;4.70;;
7527;SDS011;3805;49.006;8.514;2023-02-02T02:47:31;15.80;;;6.17;;
7527;SDS011;3805;49.006;8.514;2023-02-02T02:50:21;10.53;;;5.10;;
7527;SDS011;3805;49.006;8.514;2023-02-02T02:53:11;10.27;;;4.63;;
7527;SDS011;3805;49.006;8.514;2023-02-02T02:56:04;12.13;;;5.80;;
7527;SDS011;3805;49.006;8.514;2023-02-02T02:58:59;11.57;;;5.47;;
7527;SDS011;3805;49.006;8.514;2023-02-02T03:01:53;13.27;;;5.97;;
7527;SDS011;3805;49.006;8.514;2023-02-02T03:04:46;19.53;;;5.63;;
7527;SDS011;3805;49.006;8.514;2023-02-02T03:07:42;10.43;;;5.37;;
7527;SDS011;3805;49.006;8.514;2023-02-02T03:10:34;16.40;;;5.20;;
7527;SDS011;3805;49.006;8.514;2023-02-02T03:13:23;13.23;;;4.90;;
7527;SDS011;3805;49.006;8.514;2023-02-02T03:16:13;12.50;;;5.73;;
7527;SDS011;3805;49.006;8.514;2023-02-02T03:19:03;12.70;;;4.90;;
7527;SDS011;3805;49.006;8.514;2023-02-02T03:21:52;8.47;;;4.60;;
7527;SDS011;3805;49.006;8.514;2023-02-02T03:24:41;12.53;;;5.07;;
7527;SDS011;3805;49.006;8.514;2023-02-02T03:27:30;8.43;;;5.27;;
7527;SDS011;3805;49.006;8.514;2023-02-02T03:30:19;8.87;;;5.20;;
7527;SDS011;3805;49.006;8.514;2023-02-02T03:33:08;12.33;;;6.00;;
7527;SDS011;3805;49.006;8.514;2023-02-02T03:35:57;11.37;;;6.50;;
7527;SDS011;3805;49.006;8.514;2023-02-02T03:38:45;11.50;;;6.10;;
7527;SDS011;3805;49.006;8.514;2023-02-02T03:41:35;9.17;;;5.63;;
7527;SDS011;3805;49.006;8.514;2023-02-02T03:44:24;8.93;;;5.30;;
7527;SDS011;3805;49.006;8.514;2023-02-02T03:47:12;13.47;;;6.00;;
7527;SDS011;3805;49.006;8.514;2023-02-02T03:50:01;6.93;;;5.80;;
7527;SDS011;3805;49.006;8.514;2023-02-02T03:52:49;10.80;;;5.47;;
7527;SDS011;3805;49.006;8.514;2023-02-02T03:55:38;15.67;;;5.30;;
7527;SDS011;3805;49.006;8.514;2023-02-02T03:58:29;7.80;;;4.90;;
7527;SDS011;3805;49.006;8.514;2023-02-02T04:01:24;16.90;;;5.80;;
7527;SDS011;3805;49.006;8.514;2023-02-02T04:04:13;7.30;;;5.10;;
7527;SDS011;3805;49.006;8.514;2023-02-02T04:07:02;12.70;;;5.50;;
7527;SDS011;3805;49.006;8.514;2023-02-02T04:09:50;11.17;;;4.93;;
7527;SDS011;3805;49.006;8.514;2023-02-02T04:12:39;15.83;;;6.10;;
7527;SDS011;3805;49.006;8.514;2023-02-02T04:15:29;9.50;;;5.73;;
7527;SDS011;3805;49.006;8.514;2023-02-02T04:18:17;10.07;;;4.80;;
7527;SDS011;3805;49.006;8.514;2023-02-02T04:21:06;8.07;;;5.30;;
7527;SDS011;3805;49.006;8.514;2023-02-02T04:23:55;13.10;;;4.73;;
7527;SDS011;3805;49.006;8.514;2023-02-02T04:26:43;9.33;;;4.80;;
7527;SDS011;3805;49.006;8.514;2023-02-02T04:29:32;15.70;;;5.00;;
7527;SDS011;3805;49.006;8.514;2023-02-02T04:32:22;15.63;;;5.20;;
7527;SDS011;3805;49.006;8.514;2023-02-02T04:35:10;13.23;;;5.20;;
7527;SDS011;3805;49.006;8.514;2023-02-02T04:37:59;8.90;;;5.60;;
7527;SDS011;3805;49.006;8.514;2023-02-02T04:40:47;11.30;;;4.57;;
7527;SDS011;3805;49.006;8.514;2023-02-02T04:43:36;11.17;;;5.67;;
7527;SDS011;3805;49.006;8.514;2023-02-02T04:46:25;9.50;;;4.70;;
7527;SDS011;3805;49.006;8.514;2023-02-02T04:49:16;9.43;;;4.83;;
7527;SDS011;3805;49.006;8.514;2023-02-02T04:52:04;14.60;;;5.10;;
7527;SDS011;3805;49.006;8.514;2023-02-02T04:54:53;6.83;;;4.33;;
7527;SDS011;3805;49.006;8.514;2023-02-02T04:57:41;8.37;;;4.80;;
7527;SDS011;3805;49.006;8.514;2023-02-02T05:00:30;7.57;;;4.10;;
7527;SDS011;3805;49.006;8.514;2023-02-02T05:03:18;7.60;;;4.27;;
7527;SDS011;3805;49.006;8.514;2023-02-02T05:06:08;4.23;;;3.83;;
7527;SDS011;3805;49.006;8.514;2023-02-02T05:08:57;12.23;;;5.70;;
7527;SDS011;3805;49.006;8.514;2023-02-02T05:11:45;11.73;;;4.83;;
7527;SDS011;3805;49.006;8.514;2023-02-02T05:14:34;11.43;;;5.07;;
7527;SDS011;3805;49.006;8.514;2023-02-02T05:17:22;17.70;;;5.80;;
7527;SDS011;3805;49.006;8.514;2023-02-02T05:20:11;13.73;;;4.60;;
7527;SDS011;3805;49.006;8.514;2023-02-02T05:23:01;9.70;;;4.90;;
7527;SDS011;3805;49.006;8.514;2023-02-02T05:25:50;11.43;;;4.80;;
7527;SDS011;3805;49.006;8.514;2023-02-02T05:28:39;10.13;;;5.67;;
7527;SDS011;3805;49.006;8.514;2023-02-02T05:31:29;11.70;;;4.63;;
7527;SDS011;3805;49.006;8.514;2023-02-02T05:34:18;12.37;;;5.17;;
7527;SDS011;3805;49.006;8.514;2023-02-02T05:37:06;13.23;;;6.20;;
7527;SDS011;3805;49.006;8.514;2023-02-02T05:39:56;10.23;;;4.60;;
7527;SDS011;3805;49.006;8.514;2023-02-02T05:42:46;8.43;;;4.53;;
7527;SDS011;3805;49.006;8.514;2023-02-02T05:45:35;11.23;;;5.50;;
7527;SDS011;3805;49.006;8.514;2023-02-02T05:48:23;9.77;;;5.40;;
7527;SDS011;3805;49.006;8.514;2023-02-02T05:51:14;10.20;;;4.73;;
7527;SDS011;3805;49.006;8.514;2023-02-02T05:54:03;5.40;;;3.73;;
7527;SDS011;3805;49.006;8.514;2023-02-02T05:56:53;8.60;;;4.70;;
7527;SDS011;3805;49.006;8.514;2023-02-02T05:59:43;6.10;;;4.77;;
7527;SDS011;3805;49.006;8.514;2023-02-02T06:02:31;9.60;;;5.03;;
7527;SDS011;3805;49.006;8.514;2023-02-02T06:05:20;6.47;;;4.33;;
7527;SDS011;3805;49.006;8.514;2023-02-02T06:08:09;8.10;;;4.63;;
7527;SDS011;3805;49.006;8.514;2023-02-02T06:10:57;7.50;;;4.57;;
7527;SDS011;3805;49.006;8.514;2023-02-02T06:13:47;8.07;;;4.60;;
7527;SDS011;3805;49.006;8.514;2023-02-02T06:16:35;10.67;;;4.63;;
7527;SDS011;3805;49.006;8.514;2023-02-02T06:19:24;7.67;;;5.03;;
7527;SDS011;3805;49.006;8.514;2023-02-02T06:22:12;8.87;;;5.27;;
7527;SDS011;3805;49.006;8.514;2023-02-02T06:25:01;10.67;;;4.80;;
7527;SDS011;3805;49.006;8.514;2023-02-02T06:27:53;9.00;;;4.20;;
7527;SDS011;3805;49.006;8.514;2023-02-02T06:30:45;8.50;;;5.60;;
7527;SDS011;3805;49.006;8.514;2023-02-02T06:33:34;7.90;;;4.50;;
7527;SDS011;3805;49.006;8.514;2023-02-02T06:36:22;7.73;;;4.60;;
7527;SDS011;3805;49.006;8.514;2023-02-02T06:39:12;8.10;;;4.60;;
7527;SDS011;3805;49.006;8.514;2023-02-02T06:42:01;17.80;;;5.37;;
7527;SDS011;3805;49.006;8.514;2023-02-02T06:45:07;6.97;;;5.53;;
7527;SDS011;3805;49.006;8.514;2023-02-02T06:47:58;11.60;;;5.57;;
7527;SDS011;3805;49.006;8.514;2023-02-02T06:50:49;12.30;;;5.43;;
7527;SDS011;3805;49.006;8.514;2023-02-02T06:53:37;7.30;;;4.97;;
7527;SDS011;3805;49.006;8.514;2023-02-02T06:56:26;6.50;;;4.80;;
7527;SDS011;3805;49.006;8.514;2023-02-02T06:59:15;6.90;;;5.27;;
7527;SDS011;3805;49.006;8.514;2023-02-02T07:02:03;9.00;;;5.33;;
7527;SDS011;3805;49.006;8.514;2023-02-02T07:04:53;14.07;;;5.63;;
7527;SDS011;3805;49.006;8.514;2023-02-02T07:07:42;9.30;;;6.30;;
7527;SDS011;3805;49.006;8.514;2023-02-02T07:10:30;7.70;;;5.17;;
7527;SDS011;3805;49.006;8.514;2023-02-02T07:13:39;8.67;;;5.03;;
7527;SDS011;3805;49.006;8.514;2023-02-02T07:16:28;8.80;;;5.07;;
7527;SDS011;3805;49.006;8.514;2023-02-02T07:19:16;10.90;;;5.23;;
7527;SDS011;3805;49.006;8.514;2023-02-02T07:22:06;8.80;;;6.10;;
7527;SDS011;3805;49.006;8.514;2023-02-02T07:24:55;10.93;;;5.50;;
7527;SDS011;3805;49.006;8.514;2023-02-02T07:27:43;15.73;;;5.17;;
7527;SDS011;3805;49.006;8.514;2023-02-02T07:30:33;9.93;;;4.90;;
7527;SDS011;3805;49.006;8.514;2023-02-02T07:33:22;6.90;;;5.77;;
7527;SDS011;3805;49.006;8.514;2023-02-02T07:36:11;11.23;;;6.03;;
7527;SDS011;3805;49.006;8.514;2023-02-02T07:39:03;9.17;;;5.10;;
7527;SDS011;3805;49.006;8.514;2023-02-02T07:41:53;8.30;;;5.90;;
7527;SDS011;3805;49.006;8.514;2023-02-02T07:44:42;11.53;;;5.50;;
7527;SDS011;3805;49.006;8.514;2023-02-02T07:47:30;12.60;;;5.60;;
7527;SDS011;3805;49.006;8.514;2023-02-02T07:50:19;11.77;;;5.77;;
7527;SDS011;3805;49.006;8.514;2023-02-02T07:53:07;10.93;;;4.90;;
7527;SDS011;3805;49.006;8.514;2023-02-02T07:56:05;10.40;;;5.10;;
7527;SDS011;3805;49.006;8.514;2023-02-02T07:58:55;13.80;;;5.53;;
7527;SDS011;3805;49.006;8.514;2023-02-02T08:01:43;7.10;;;5.73;;
7527;SDS011;3805;49.006;8.514;2023-02-02T08:04:32;8.90;;;6.30;;
7527;SDS011;3805;49.006;8.514;2023-02-02T08:07:20;9.60;;;5.70;;
7527;SDS011;3805;49.006;8.514;2023-02-02T08:10:10;11.43;;;6.33;;
7527;SDS011;3805;49.006;8.514;2023-02-02T08:13:00;10.43;;;5.50;;
7527;SDS011;3805;49.006;8.514;2023-02-02T08:15:49;8.43;;;5.33;;
7527;SDS011;3805;49.006;8.514;2023-02-02T08:18:38;9.30;;;5.47;;
7527;SDS011;3805;49.006;8.514;2023-02-02T08:21:26;5.80;;;5.30;;
7527;SDS011;3805;49.006;8.514;2023-02-02T08:24:15;14.07;;;6.23;;
7527;SDS011;3805;49.006;8.514;2023-02-02T08:27:04;9.33;;;5.87;;
7527;SDS011;3805;49.006;8.514;2023-02-02T08:29:53;10.30;;;5.90;;
7527;SDS011;3805;49.006;8.514;2023-02-02T08:32:42;13.33;;;6.20;;
7527;SDS011;3805;49.006;8.514;2023-02-02T08:35:30;11.70;;;6.30;;
7527;SDS011;3805;49.006;8.514;2023-02-02T08:38:19;11.00;;;5.90;;
7527;SDS011;3805;49.006;8.514;2023-02-02T08:41:08;12.10;;;6.20;;
7527;SDS011;3805;49.006;8.514;2023-02-02T08:43:58;7.60;;;5.87;;
7527;SDS011;3805;49.006;8.514;2023-02-02T08:46:48;9.27;;;5.63;;
7527;SDS011;3805;49.006;8.514;2023-02-02T08:49:36;12.83;;;6.50;;
7527;SDS011;3805;49.006;8.514;2023-02-02T08:52:25;13.10;;;6.23;;
7527;SDS011;3805;49.006;8.514;2023-02-02T08:55:14;11.00;;;5.90;;
7527;SDS011;3805;49.006;8.514;2023-02-02T08:58:02;12.00;;;6.17;;
7527;SDS011;3805;49.006;8.514;2023-02-02T09:00:51;14.30;;;6.10;;
7527;SDS011;3805;49.006;8.514;2023-02-02T09:03:41;10.20;;;5.30;;
7527;SDS011;3805;49.006;8.514;2023-02-02T09:06:31;12.63;;;6.63;;
7527;SDS011;3805;49.006;8.514;2023-02-02T09:09:21;10.80;;;6.10;;
7527;SDS011;3805;49.006;8.514;2023-02-02T09:12:09;11.17;;;6.30;;
7527;SDS011;3805;49.006;8.514;2023-02-02T09:14:58;10.83;;;5.70;;
7527;SDS011;3805;49.006;8.514;2023-02-02T09:17:46;11.77;;;5.80;;
7527;SDS011;3805;49.006;8.514;2023-02-02T09:20:36;7.53;;;6.13;;
7527;SDS011;3805;49.006;8.514;2023-02-02T09:23:28;17.10;;;7.00;;
7527;SDS011;3805;49.006;8.514;2023-02-02T09:26:17;12.20;;;6.20;;
7527;SDS011;3805;49.006;8.514;2023-02-02T09:29:09;12.20;;;6.30;;
7527;SDS011;3805;49.006;8.514;2023-02-02T09:31:58;13.50;;;6.53;;
7527;SDS011;3805;49.006;8.514;2023-02-02T09:34:47;11.00;;;5.50;;
7527;SDS011;3805;49.006;8.514;2023-02-02T09:37:37;13.90;;;6.33;;
7527;SDS011;3805;49.006;8.514;2023-02-02T09:40:25;7.57;;;6.07;;
7527;SDS011;3805;49.006;8.514;2023-02-02T09:43:21;8.33;;;5.20;;
7527;SDS011;3805;49.006;8.514;2023-02-02T09:46:16;7.67;;;5.60;;
7527;SDS011;3805;49.006;8.514;2023-02-02T09:49:12;9.50;;;5.37;;
7527;SDS011;3805;49.006;8.514;2023-02-02T09:52:05;10.17;;;6.13;;
7527;SDS011;3805;49.006;8.514;2023-02-02T09:54:59;11.80;;;6.53;;
7527;SDS011;3805;49.006;8.514;2023-02-02T09:57:51;18.70;;;6.87;;
7527;SDS011;3805;49.006;8.514;2023-02-02T10:00:43;11.70;;;5.80;;
7527;SDS011;3805;49.006;8.514;2023-02-02T10:03:35;10.47;;;5.73;;
7527;SDS011;3805;49.006;8.514;2023-02-02T10:06:27;10.57;;;5.37;;
7527;SDS011;3805;49.006;8.514;2023-02-02T10:09:24;12.73;;;5.60;;
7527;SDS011;3805;49.006;8.514;2023-02-02T10:12:23;15.53;;;8.10;;
7527;SDS011;3805;49.006;8.514;2023-02-02T10:15:18;12.30;;;6.10;;
7527;SDS011;3805;49.006;8.514;2023-02-02T10:18:11;14.20;;;7.27;;
7527;SDS011;3805;49.006;8.514;2023-02-02T10:21:06;13.77;;;6.23;;
7527;SDS011;3805;49.006;8.514;2023-02-02T10:23:57;12.70;;;6.47;;
7527;SDS011;3805;49.006;8.514;2023-02-02T10:26:49;16.30;;;7.23;;
7527;SDS011;3805;49.006;8.514;2023-02-02T10:29:43;12.73;;;6.30;;
7527;SDS011;3805;49.006;8.514;2023-02-02T10:32:37;12.73;;;5.90;;
7527;SDS011;3805;49.006;8.514;2023-02-02T10:35:41;12.27;;;6.40;;
7527;SDS011;3805;49.006;8.514;2023-02-02T10:38:34;13.17;;;5.80;;
7527;SDS011;3805;49.006;8.514;2023-02-02T10:41:27;12.63;;;5.60;;
7527;SDS011;3805;49.006;8.514;2023-02-02T10:44:22;13.07;;;5.90;;
7527;SDS011;3805;49.006;8.514;2023-02-02T10:47:20;8.90;;;5.93;;
7527;SDS011;3805;49.006;8.514;2023-02-02T10:50:14;9.70;;;5.97;;
7527;SDS011;3805;49.006;8.514;2023-02-02T10:53:05;11.20;;;5.63;;
7527;SDS011;3805;49.006;8.514;2023-02-02T10:55:58;19.53;;;6.70;;
7527;SDS011;3805;49.006;8.514;2023-02-02T10:58:53;19.70;;;6.10;;
7527;SDS011;3805;49.006;8.514;2023-02-02T11:01:45;10.27;;;5.60;;
7527;SDS011;3805;49.006;8.514;2023-02-02T11:04:35;12.53;;;5.53;;
7527;SDS011;3805;49.006;8.514;2023-02-02T11:07:41;22.27;;;6.67;;
7527;SDS011;3805;49.006;8.514;2023-02-02T11:10:30;17.83;;;6.17;;
7527;SDS011;3805;49.006;8.514;2023-02-02T11:13:24;10.77;;;5.40;;
7527;SDS011;3805;49.006;8.514;2023-02-02T11:19:30;9.33;;;5.10;;
7527;SDS011;3805;49.006;8.514;2023-02-02T11:22:25;11.47;;;4.90;;
7527;SDS011;3805;49.006;8.514;2023-02-02T11:25:21;12.87;;;6.93;;
7527;SDS011;3805;49.006;8.514;2023-02-02T11:28:17;9.60;;;5.27;;
7527;SDS011;3805;49.006;8.514;2023-02-02T11:31:07;11.10;;;5.10;;
7527;SDS011;3805;49.006;8.514;2023-02-02T11:34:06;10.13;;;4.50;;
7527;SDS011;3805;49.006;8.514;2023-02-02T11:37:11;10.17;;;4.50;;
7527;SDS011;3805;49.006;8.514;2023-02-02T11:40:16;8.03;;;4.87;;
7527;SDS011;3805;49.006;8.514;2023-02-02T11:43:14;10.00;;;4.60;;
7527;SDS011;3805;49.006;8.514;2023-02-02T11:46:05;10.93;;;4.30;;
7527;SDS011;3805;49.006;8.514;2023-02-02T11:48:56;9.43;;;5.70;;
7527;SDS011;3805;49.006;8.514;2023-02-02T11:51:54;10.83;;;4.87;;
7527;SDS011;3805;49.006;8.514;2023-02-02T11:54:45;10.97;;;5.90;;
7527;SDS011;3805;49.006;8.514;2023-02-02T11:57:36;11.53;;;5.20;;
7527;SDS011;3805;49.006;8.514;2023-02-02T12:00:25;10.90;;;4.67;;
7527;SDS011;3805;49.006;8.514;2023-02-02T12:03:21;6.27;;;4.83;;
7527;SDS011;3805;49.006;8.514;2023-02-02T12:06:18;8.03;;;4.43;;
7527;SDS011;3805;49.006;8.514;2023-02-02T12:09:09;12.27;;;4.90;;
7527;SDS011;3805;49.006;8.514;2023-02-02T12:12:01;12.10;;;5.43;;
7527;SDS011;3805;49.006;8.514;2023-02-02T12:14:57;18.23;;;5.30;;
7527;SDS011;3805;49.006;8.514;2023-02-02T12:17:51;12.73;;;5.40;;
7527;SDS011;3805;49.006;8.514;2023-02-02T12:20:44;11.90;;;5.27;;
7527;SDS011;3805;49.006;8.514;2023-02-02T12:26:47;11.90;;;5.47;;
7527;SDS011;3805;49.006;8.514;2023-02-02T12:29:42;12.70;;;6.00;;
7527;SDS011;3805;49.006;8.514;2023-02-02T12:32:44;11.23;;;4.83;;
7527;SDS011;3805;49.006;8.514;2023-02-02T12:35:47;9.53;;;5.17;;
7527;SDS011;3805;49.006;8.514;2023-02-02T12:39:07;13.33;;;5.20;;
7527;SDS011;3805;49.006;8.514;2023-02-02T12:42:06;15.33;;;4.83;;
7527;SDS011;3805;49.006;8.514;2023-02-02T12:45:20;15.07;;;6.00;;
7527;SDS011;3805;49.006;8.514;2023-02-02T12:48:28;11.83;;;5.00;;
7527;SDS011;3805;49.006;8.514;2023-02-02T12:51:28;9.50;;;4.83;;
7527;SDS011;3805;49.006;8.514;2023-02-02T12:54:32;14.90;;;5.57;;
7527;SDS011;3805;49.006;8.514;2023-02-02T12:57:43;11.90;;;5.77;;
7527;SDS011;3805;49.006;8.514;2023-02-02T13:00:46;9.53;;;5.47;;
7527;SDS011;3805;49.006;8.514;2023-02-02T13:04:12;11.63;;;5.00;;
7527;SDS011;3805;49.006;8.514;2023-02-02T13:10:23;6.40;;;4.40;;
7527;SDS011;3805;49.006;8.514;2023-02-02T13:13:15;14.03;;;5.87;;
7527;SDS011;3805;49.006;8.514;2023-02-02T13:16:05;7.50;;;4.70;;
7527;SDS011;3805;49.006;8.514;2023-02-02T13:18:57;8.63;;;5.23;;
7527;SDS011;3805;49.006;8.514;2023-02-02T13:21:49;7.67;;;4.40;;
7527;SDS011;3805;49.006;8.514;2023-02-02T13:24:39;9.27;;;5.00;;
7527;SDS011;3805;49.006;8.514;2023-02-02T13:27:29;12.80;;;4.00;;
7527;SDS011;3805;49.006;8.514;2023-02-02T13:30:21;11.17;;;4.63;;
7527;SDS011;3805;49.006;8.514;2023-02-02T13:33:16;5.40;;;4.30;;
7527;SDS011;3805;49.006;8.514;2023-02-02T13:36:08;7.00;;;4.50;;
7527;SDS011;3805;49.006;8.514;2023-02-02T13:39:08;10.13;;;4.27;;
7527;SDS011;3805;49.006;8.514;2023-02-02T13:42:02;6.80;;;4.63;;
7527;SDS011;3805;49.006;8.514;2023-02-02T13:45:08;9.70;;;4.90;;
7527;SDS011;3805;49.006;8.514;2023-02-02T13:48:10;11.83;;;4.87;;
7527;SDS011;3805;49.006;8.514;2023-02-02T13:54:33;8.93;;;4.27;;
7527;SDS011;3805;49.006;8.514;2023-02-02T14:01:09;12.27;;;4.80;;
7527;SDS011;3805;49.006;8.514;2023-02-02T14:04:00;7.40;;;4.33;;
7527;SDS011;3805;49.006;8.514;2023-02-02T14:06:54;13.97;;;5.10;;
7527;SDS011;3805;49.006;8.514;2023-02-02T14:09:45;19.50;;;4.40;;
7527;SDS011;3805;49.006;8.514;2023-02-02T14:12:35;8.03;;;4.70;;
7527;SDS011;3805;49.006;8.514;2023-02-02T14:15:36;7.10;;;4.10;;
7527;SDS011;3805;49.006;8.514;2023-02-02T14:22:01;10.57;;;5.10;;
7527;SDS011;3805;49.006;8.514;2023-02-02T14:24:52;9.20;;;5.00;;
7527;SDS011;3805;49.006;8.514;2023-02-02T14:30:47;11.47;;;5.33;;
7527;SDS011;3805;49.006;8.514;2023-02-02T14:34:32;7.60;;;3.97;;
7527;SDS011;3805;49.006;8.514;2023-02-02T14:37:28;14.57;;;5.50;;
7527;SDS011;3805;49.006;8.514;2023-02-02T14:40:44;13.17;;;4.40;;
7527;SDS011;3805;49.006;8.514;2023-02-02T14:43:39;9.30;;;4.70;;
7527;SDS011;3805;49.006;8.514;2023-02-02T14:46:33;13.23;;;4.70;;
7527;SDS011;3805;49.006;8.514;2023-02-02T14:49:24;11.07;;;5.30;;
7527;SDS011;3805;49.006;8.514;2023-02-02T14:52:19;8.13;;;4.30;;
7527;SDS011;3805;49.006;8.514;2023-02-02T14:55:15;11.33;;;4.80;;
7527;SDS011;3805;49.006;8.514;2023-02-02T14:58:05;6.07;;;4.33;;
7527;SDS011;3805;49.006;8.514;2023-02-02T15:00:54;16.30;;;5.03;;
7527;SDS011;3805;49.006;8.514;2023-02-02T15:03:48;11.23;;;4.20;;
7527;SDS011;3805;49.006;8.514;2023-02-02T15:06:39;10.10;;;4.70;;
7527;SDS011;3805;49.006;8.514;2023-02-02T15:09:37;11.87;;;5.20;;
7527;SDS011;3805;49.006;8.514;2023-02-02T15:12:28;5.63;;;3.77;;
7527;SDS011;3805;49.006;8.514;2023-02-02T15:15:19;11.97;;;5.00;;
7527;SDS011;3805;49.006;8.514;2023-02-02T15:18:12;6.40;;;4.17;;
7527;SDS011;3805;49.006;8.514;2023-02-02T15:21:04;12.53;;;4.63;;
7527;SDS011;3805;49.006;8.514;2023-02-02T15:23:53;4.80;;;3.60;;
7527;SDS011;3805;49.006;8.514;2023-02-02T15:26:44;20.47;;;4.90;;
7527;SDS011;3805;49.006;8.514;2023-02-02T15:29:35;6.53;;;4.30;;
7527;SDS011;3805;49.006;8.514;2023-02-02T15:32:28;8.30;;;3.63;;
7527;SDS011;3805;49.006;8.514;2023-02-02T15:35:18;7.70;;;4.17;;
7527;SDS011;3805;49.006;8.514;2023-02-02T15:38:10;6.43;;;3.83;;
7527;SDS011;3805;49.006;8.514;2023-02-02T15:41:04;10.00;;;3.20;;
7527;SDS011;3805;49.006;8.514;2023-02-02T15:43:56;6.20;;;3.60;;
7527;SDS011;3805;49.006;8.514;2023-02-02T15:46:45;4.60;;;3.57;;
7527;SDS011;3805;49.006;8.514;2023-02-02T15:49:34;4.13;;;3.43;;
7527;SDS011;3805;49.006;8.514;2023-02-02T15:52:24;13.63;;;4.13;;
7527;SDS011;3805;49.006;8.514;2023-02-02T15:55:17;8.63;;;4.60;;
7527;SDS011;3805;49.006;8.514;2023-02-02T15:58:21;7.00;;;3.57;;
7527;SDS011;3805;49.006;8.514;2023-02-02T16:01:14;4.83;;;3.70;;
7527;SDS011;3805;49.006;8.514;2023-02-02T16:04:07;6.43;;;3.43;;
7527;SDS011;3805;49.006;8.514;2023-02-02T16:07:02;7.77;;;4.20;;
7527;SDS011;3805;49.006;8.514;2023-02-02T16:09:51;4.37;;;3.03;;
7527;SDS011;3805;49.006;8.514;2023-02-02T16:12:40;12.80;;;3.77;;
7527;SDS011;3805;49.006;8.514;2023-02-02T16:15:28;6.63;;;3.63;;
7527;SDS011;3805;49.006;8.514;2023-02-02T16:18:20;4.07;;;3.20;;
7527;SDS011;3805;49.006;8.514;2023-02-02T16:21:10;3.87;;;2.90;;
7527;SDS011;3805;49.006;8.514;2023-02-02T16:24:04;4.10;;;3.63;;
7527;SDS011;3805;49.006;8.514;2023-02-02T16:26:56;4.90;;;3.67;;
7527;SDS011;3805;49.006;8.514;2023-02-02T16:29:46;4.57;;;3.23;;
7527;SDS011;3805;49.006;8.514;2023-02-02T16:32:36;5.33;;;3.60;;
7527;SDS011;3805;49.006;8.514;2023-02-02T16:35:31;4.83;;;3.27;;
7527;SDS011;3805;49.006;8.514;2023-02-02T16:38:22;5.80;;;2.93;;
7527;SDS011;3805;49.006;8.514;2023-02-02T16:41:12;4.17;;;3.77;;
7527;SDS011;3805;49.006;8.514;2023-02-02T16:47:33;5.10;;;2.70;;
7527;SDS011;3805;49.006;8.514;2023-02-02T16:50:25;5.57;;;3.40;;
7527;SDS011;3805;49.006;8.514;2023-02-02T16:53:21;6.33;;;3.20;;
7527;SDS011;3805;49.006;8.514;2023-02-02T16:56:17;4.27;;;3.23;;
7527;SDS011;3805;49.006;8.514;2023-02-02T16:59:14;9.53;;;3.83;;
7527;SDS011;3805;49.006;8.514;2023-02-02T17:02:04;6.03;;;3.10;;
7527;SDS011;3805;49.006;8.514;2023-02-02T17:05:14;6.20;;;4.67;;
7527;SDS011;3805;49.006;8.514;2023-02-02T17:08:04;5.80;;;3.20;;
7527;SDS011;3805;49.006;8.514;2023-02-02T17:11:03;9.70;;;3.23;;
7527;SDS011;3805;49.006;8.514;2023-02-02T17:13:55;3.90;;;3.13;;
7527;SDS011;3805;49.006;8.514;2023-02-02T17:16:44;7.90;;;3.67;;
7527;SDS011;3805;49.006;8.514;2023-02-02T17:19:32;6.97;;;3.47;;
7527;SDS011;3805;49.006;8.514;2023-02-02T17:22:22;4.03;;;3.63;;
7527;SDS011;3805;49.006;8.514;2023-02-02T17:25:12;9.10;;;3.70;;
7527;SDS011;3805;49.006;8.514;2023-02-02T17:28:05;4.70;;;3.40;;
7527;SDS011;3805;49.006;8.514;2023-02-02T17:30:56;4.00;;;3.13;;
7527;SDS011;3805;49.006;8.514;2023-02-02T17:33:46;7.20;;;3.23;;
7527;SDS011;3805;49.006;8.514;2023-02-02T17:36:34;7.63;;;3.27;;
7527;SDS011;3805;49.006;8.514;2023-02-02T17:39:23;7.03;;;3.50;;
7527;SDS011;3805;49.006;8.514;2023-02-02T17:42:14;4.70;;;3.30;;
7527;SDS011;3805;49.006;8.514;2023-02-02T17:45:11;9.90;;;3.70;;
7527;SDS011;3805;49.006;8.514;2023-02-02T17:48:02;6.37;;;3.30;;
7527;SDS011;3805;49.006;8.514;2023-02-02T17:50:51;7.47;;;3.33;;
7527;SDS011;3805;49.006;8.514;2023-02-02T17:53:39;6.30;;;3.67;;
7527;SDS011;3805;49.006;8.514;2023-02-02T17:56:28;5.80;;;3.47;;
7527;SDS011;3805;49.006;8.514;2023-02-02T17:59:16;6.60;;;4.67;;
7527;SDS011;3805;49.006;8.514;2023-02-02T18:02:08;4.53;;;3.30;;
7527;SDS011;3805;49.006;8.514;2023-02-02T18:04:57;8.30;;;3.57;;
7527;SDS011;3805;49.006;8.514;2023-02-02T18:07:46;6.60;;;3.63;;
7527;SDS011;3805;49.006;8.514;2023-02-02T18:10:34;7.37;;;4.07;;
7527;SDS011;3805;49.006;8.514;2023-02-02T18:13:24;5.00;;;3.27;;
7527;SDS011;3805;49.006;8.514;2023-02-02T18:16:13;6.30;;;3.57;;